createdAt,value
2018-12-11T00:00:02.464Z,64.53
2018-12-11T00:02:34.217Z,59.40
2018-12-11T00:05:06.993Z,57.90
2018-12-11T00:07:37.752Z,56.87
2018-12-11T00:10:08.437Z,56.20
2018-12-11T00:12:39.214Z,61.00
2018-12-11T00:15:10.161Z,57.63
2018-12-11T00:17:40.914Z,65.03
2018-12-11T00:20:11.657Z,64.00
2018-12-11T00:22:42.896Z,61.13
2018-12-11T00:25:13.878Z,61.93
2018-12-11T00:27:44.678Z,61.83
2018-12-11T00:30:15.422Z,62.30
2018-12-11T00:32:46.091Z,63.40
2018-12-11T00:35:16.763Z,60.47
2018-12-11T00:37:47.670Z,66.47
2018-12-11T00:40:18.377Z,65.97
2018-12-11T00:42:49.022Z,73.27
2018-12-11T00:45:19.814Z,63.30
2018-12-11T00:47:50.430Z,67.10
2018-12-11T00:50:21.405Z,63.20
2018-12-11T00:52:52.270Z,62.73
2018-12-11T00:55:23.081Z,65.00
2018-12-11T00:57:54.042Z,73.07
2018-12-11T01:00:24.734Z,69.67
2018-12-11T01:02:55.377Z,73.13
2018-12-11T01:05:26.237Z,76.20
2018-12-11T01:07:56.973Z,69.80
2018-12-11T01:10:27.635Z,70.77
2018-12-11T01:12:58.455Z,85.43
2018-12-11T01:15:29.115Z,80.83
2018-12-11T01:18:00.974Z,81.93
2018-12-11T01:20:31.703Z,75.63
2018-12-11T01:23:02.528Z,73.50
2018-12-11T01:25:33.239Z,80.90
2018-12-11T01:28:05.786Z,80.57
2018-12-11T01:30:36.435Z,80.23
2018-12-11T01:33:07.186Z,72.87
2018-12-11T01:35:37.878Z,76.33
2018-12-11T01:38:08.532Z,77.47
2018-12-11T01:40:39.201Z,71.37
2018-12-11T01:43:09.888Z,73.73
2018-12-11T01:45:41.187Z,76.73
2018-12-11T01:48:11.881Z,76.60
2018-12-11T01:50:42.609Z,71.20
2018-12-11T01:53:13.291Z,76.20
2018-12-11T01:55:43.918Z,70.70
2018-12-11T01:58:14.614Z,76.80
2018-12-11T02:00:45.308Z,68.27
2018-12-11T02:03:16.029Z,67.37
2018-12-11T02:05:46.773Z,70.33
2018-12-11T02:08:17.392Z,62.90
2018-12-11T02:10:48.069Z,65.83
2018-12-11T02:13:18.784Z,68.97
2018-12-11T02:15:49.527Z,60.83
2018-12-11T02:18:21.374Z,65.07
2018-12-11T02:20:52.231Z,61.23
2018-12-11T02:23:22.932Z,60.47
2018-12-11T02:25:53.608Z,66.07
2018-12-11T02:28:24.366Z,64.07
2018-12-11T02:30:55.974Z,56.63
2018-12-11T02:33:26.651Z,58.03
2018-12-11T02:35:57.303Z,54.33
2018-12-11T02:38:28.093Z,56.57
2018-12-11T02:40:58.826Z,49.17
2018-12-11T02:43:29.518Z,50.43
2018-12-11T02:46:00.238Z,44.50
2018-12-11T02:48:30.939Z,45.03
2018-12-11T02:51:01.625Z,44.07
2018-12-11T02:53:34.710Z,41.93
2018-12-11T02:56:05.553Z,42.53
2018-12-11T02:58:36.489Z,42.90
2018-12-11T03:01:07.180Z,39.47
2018-12-11T03:03:37.909Z,34.90
2018-12-11T03:06:08.534Z,31.63
2018-12-11T03:08:39.289Z,32.70
2018-12-11T03:11:09.924Z,31.07
2018-12-11T03:13:40.595Z,29.23
2018-12-11T03:16:11.338Z,32.87
2018-12-11T03:18:45.375Z,28.13
2018-12-11T03:21:16.083Z,33.80
2018-12-11T03:23:46.751Z,31.27
2018-12-11T03:26:17.410Z,31.90
2018-12-11T03:28:48.096Z,36.53
2018-12-11T03:31:19.722Z,28.77
2018-12-11T03:33:50.448Z,25.83
2018-12-11T03:36:21.182Z,25.40
2018-12-11T03:38:52.092Z,31.90
2018-12-11T03:41:22.818Z,28.13
2018-12-11T03:43:53.608Z,32.77
2018-12-11T03:46:24.356Z,26.07
2018-12-11T03:48:55.131Z,20.53
2018-12-11T03:51:25.854Z,21.53
2018-12-11T03:53:56.588Z,23.37
2018-12-11T03:56:27.195Z,22.63
2018-12-11T03:58:58.130Z,25.40
2018-12-11T04:01:28.777Z,21.73
2018-12-11T04:03:59.458Z,26.97
2018-12-11T04:06:30.155Z,24.30
2018-12-11T04:09:00.924Z,20.53
2018-12-11T04:11:31.736Z,25.63
2018-12-11T04:14:04.289Z,25.30
2018-12-11T04:16:35.690Z,21.97
2018-12-11T04:19:06.558Z,26.43
2018-12-11T04:21:37.335Z,26.63
2018-12-11T04:24:08.112Z,22.30
2018-12-11T04:26:40.835Z,22.57
2018-12-11T04:29:11.663Z,23.80
2018-12-11T04:31:42.406Z,23.57
2018-12-11T04:34:13.168Z,21.43
2018-12-11T04:36:43.952Z,23.13
2018-12-11T04:39:15.069Z,22.87
2018-12-11T04:41:45.848Z,22.17
2018-12-11T04:44:16.509Z,22.93
2018-12-11T04:46:47.303Z,22.03
2018-12-11T04:49:18.059Z,23.87
2018-12-11T04:51:48.750Z,21.43
2018-12-11T04:54:19.490Z,24.50
2018-12-11T04:56:50.158Z,25.70
2018-12-11T04:59:20.897Z,25.90
2018-12-11T05:01:51.652Z,28.73
2018-12-11T05:04:22.689Z,26.37
2018-12-11T05:06:53.513Z,26.47
2018-12-11T05:09:24.133Z,24.80
2018-12-11T05:11:54.765Z,27.67
2018-12-11T05:14:25.497Z,27.23
2018-12-11T05:16:56.232Z,23.80
2018-12-11T05:19:26.944Z,22.60
2018-12-11T05:21:57.681Z,28.87
2018-12-11T05:24:28.363Z,29.33
2018-12-11T05:26:59.045Z,29.20
2018-12-11T05:29:29.688Z,23.37
2018-12-11T05:32:00.370Z,24.57
2018-12-11T05:34:31.118Z,26.90
2018-12-11T05:37:02.151Z,23.63
2018-12-11T05:39:33.285Z,21.90
2018-12-11T05:42:04.652Z,24.03
2018-12-11T05:44:35.420Z,22.03
2018-12-11T05:47:06.174Z,27.87
2018-12-11T05:49:38.073Z,28.43
2018-12-11T05:52:08.721Z,25.40
2018-12-11T05:54:39.410Z,28.47
2018-12-11T05:57:09.998Z,26.93
2018-12-11T05:59:41.259Z,24.50
2018-12-11T06:02:13.289Z,29.53
2018-12-11T06:04:44.037Z,26.53
2018-12-11T06:07:14.791Z,32.87
2018-12-11T06:09:45.483Z,28.97
2018-12-11T06:12:25.078Z,43.50
2018-12-11T06:14:55.822Z,42.13
2018-12-11T06:17:27.714Z,34.17
2018-12-11T06:19:58.637Z,33.60
2018-12-11T06:22:29.287Z,31.97
2018-12-11T06:24:59.917Z,34.23
2018-12-11T06:27:30.639Z,37.37
2018-12-11T06:30:01.360Z,39.13
2018-12-11T06:32:33.240Z,34.37
2018-12-11T06:35:03.918Z,42.80
2018-12-11T06:37:34.641Z,37.73
2018-12-11T06:40:05.796Z,44.50
2018-12-11T06:42:36.394Z,44.03
2018-12-11T06:45:07.892Z,38.43
2018-12-11T06:47:38.581Z,48.30
2018-12-11T06:50:09.564Z,53.90
2018-12-11T06:52:40.283Z,41.50
2018-12-11T06:55:11.133Z,35.50
2018-12-11T06:57:41.858Z,38.60
2018-12-11T07:00:12.643Z,37.80
2018-12-11T07:02:43.395Z,37.13
2018-12-11T07:05:14.053Z,38.23
2018-12-11T07:07:44.834Z,36.30
2018-12-11T07:10:15.779Z,34.77
2018-12-11T07:12:47.635Z,34.87
2018-12-11T07:15:18.341Z,35.03
2018-12-11T07:17:49.361Z,39.10
2018-12-11T07:20:20.718Z,40.13
2018-12-11T07:22:51.874Z,43.73
2018-12-11T07:25:22.748Z,48.53
2018-12-11T07:27:53.649Z,43.37
2018-12-11T07:30:24.303Z,35.97
2018-12-11T07:32:55.006Z,46.70
2018-12-11T07:35:25.776Z,41.57
2018-12-11T07:37:56.598Z,44.47
2018-12-11T07:40:27.599Z,41.33
2018-12-11T07:42:58.419Z,43.30
2018-12-11T07:45:29.124Z,41.67
2018-12-11T07:47:59.759Z,48.10
2018-12-11T07:50:30.609Z,47.83
2018-12-11T07:53:01.492Z,44.20
2018-12-11T07:55:32.180Z,52.87
2018-12-11T07:58:03.000Z,50.20
2018-12-11T08:00:33.642Z,46.83
2018-12-11T08:03:04.349Z,47.93
2018-12-11T08:05:35.029Z,49.93
2018-12-11T08:08:05.815Z,44.87
2018-12-11T08:10:37.356Z,46.43
2018-12-11T08:13:08.043Z,46.57
2018-12-11T08:15:38.671Z,51.77
2018-12-11T08:18:09.338Z,39.27
2018-12-11T08:20:40.130Z,42.90
2018-12-11T08:23:10.781Z,40.53
2018-12-11T08:25:41.546Z,38.27
2018-12-11T08:28:12.367Z,45.17
2018-12-11T08:30:43.223Z,40.10
2018-12-11T08:33:14.073Z,37.70
2018-12-11T08:35:46.615Z,40.80
2018-12-11T08:38:17.351Z,45.43
2018-12-11T08:40:48.105Z,38.47
2018-12-11T08:43:18.776Z,38.20
2018-12-11T08:45:49.442Z,40.20
2018-12-11T08:48:20.734Z,40.17
2018-12-11T08:50:51.484Z,43.83
2018-12-11T08:53:22.429Z,39.07
2018-12-11T08:55:53.117Z,37.47
2018-12-11T08:58:23.794Z,37.27
2018-12-11T09:00:54.615Z,40.13
2018-12-11T09:03:25.491Z,34.30
2018-12-11T09:05:57.800Z,38.20
2018-12-11T09:08:28.601Z,39.90
2018-12-11T09:10:59.271Z,43.77
2018-12-11T09:13:30.344Z,39.73
2018-12-11T09:16:01.098Z,37.33
2018-12-11T09:18:31.902Z,37.87
2018-12-11T09:21:02.571Z,39.23
2018-12-11T09:23:33.240Z,36.97
2018-12-11T09:26:03.930Z,33.17
2018-12-11T09:28:34.739Z,30.90
2018-12-11T09:31:05.431Z,30.70
2018-12-11T09:33:37.479Z,35.93
2018-12-11T09:36:08.122Z,38.60
2018-12-11T09:38:38.839Z,39.43
2018-12-11T09:41:09.555Z,30.17
2018-12-11T09:43:40.177Z,28.77
2018-12-11T09:46:11.001Z,24.33
2018-12-11T09:48:41.814Z,36.07
2018-12-11T09:51:17.757Z,42.20
2018-12-11T09:53:45.492Z,25.63
2018-12-11T09:56:16.218Z,27.47
2018-12-11T09:58:47.612Z,25.53
2018-12-11T10:01:18.228Z,26.83
2018-12-11T10:03:48.889Z,28.17
2018-12-11T10:06:19.625Z,26.57
2018-12-11T10:08:50.325Z,33.23
2018-12-11T10:11:21.079Z,30.47
2018-12-11T10:13:53.662Z,22.47
2018-12-11T10:16:24.356Z,25.70
2018-12-11T10:18:54.990Z,25.10
2018-12-11T10:21:25.635Z,27.73
2018-12-11T10:23:56.217Z,27.50
2018-12-11T10:26:26.940Z,24.67
2018-12-11T10:28:57.834Z,24.27
2018-12-11T10:31:28.532Z,25.17
2018-12-11T10:33:59.349Z,20.20
2018-12-11T10:36:30.033Z,22.10
2018-12-11T10:39:02.859Z,20.97
2018-12-11T10:41:34.962Z,23.57
2018-12-11T10:44:05.832Z,13.73
2018-12-11T10:46:36.428Z,16.00
2018-12-11T10:49:07.038Z,14.70
2018-12-11T10:51:37.874Z,12.63
2018-12-11T10:54:08.768Z,18.57
2018-12-11T10:56:39.583Z,18.03
2018-12-11T10:59:10.403Z,18.20
2018-12-11T11:01:45.179Z,19.47
2018-12-11T11:04:15.997Z,18.67
2018-12-11T11:06:46.814Z,18.93
2018-12-11T11:09:17.462Z,26.77
2018-12-11T11:11:48.146Z,49.33
2018-12-11T11:14:18.885Z,22.47
2018-12-11T11:16:49.606Z,31.47
2018-12-11T11:19:20.229Z,58.30
2018-12-11T11:21:50.929Z,47.93
2018-12-11T11:24:21.700Z,57.73
2018-12-11T11:26:52.376Z,58.67
2018-12-11T11:29:23.088Z,78.37
2018-12-11T11:31:53.896Z,163.13
2018-12-11T11:34:24.598Z,171.37
2018-12-11T11:36:55.280Z,97.87
2018-12-11T11:39:25.915Z,38.13
2018-12-11T11:41:56.660Z,37.67
2018-12-11T11:44:27.432Z,29.53
2018-12-11T11:46:58.186Z,30.23
2018-12-11T11:49:28.940Z,23.87
2018-12-11T11:51:59.693Z,21.73
2018-12-11T11:54:30.436Z,18.20
2018-12-11T11:57:01.154Z,18.97
2018-12-11T11:59:31.943Z,13.07
2018-12-11T12:02:02.638Z,12.40
2018-12-11T12:04:34.615Z,15.07
2018-12-11T12:07:05.329Z,15.17
2018-12-11T12:09:36.041Z,44.67
2018-12-11T12:12:06.815Z,89.47
2018-12-11T12:14:37.701Z,53.03
2018-12-11T12:17:08.446Z,14.20
2018-12-11T12:19:39.104Z,9.43
2018-12-11T12:22:09.723Z,9.70
2018-12-11T12:24:40.494Z,9.13
2018-12-11T12:27:11.151Z,9.83
2018-12-11T12:29:41.882Z,10.50
2018-12-11T12:32:12.613Z,17.10
2018-12-11T12:34:43.511Z,20.93
2018-12-11T12:37:14.436Z,34.70
2018-12-11T12:39:45.122Z,55.63
2018-12-11T12:42:15.754Z,41.47
2018-12-11T12:44:46.471Z,19.93
2018-12-11T12:47:17.074Z,24.93
2018-12-11T12:49:50.623Z,17.77
2018-12-11T12:52:20.499Z,22.37
2018-12-11T12:54:51.387Z,21.33
2018-12-11T12:57:22.213Z,18.63
2018-12-11T12:59:52.940Z,17.03
2018-12-11T13:02:23.725Z,25.83
2018-12-11T13:04:54.388Z,13.87
2018-12-11T13:07:25.167Z,18.40
2018-12-11T13:09:55.869Z,28.00
2018-12-11T13:12:26.537Z,21.83
2018-12-11T13:14:57.571Z,39.20
2018-12-11T13:17:28.208Z,40.67
2018-12-11T13:19:58.859Z,31.63
2018-12-11T13:22:29.603Z,34.40
2018-12-11T13:25:00.384Z,30.73
2018-12-11T13:27:31.166Z,34.10
2018-12-11T13:30:01.854Z,25.53
2018-12-11T13:32:32.706Z,23.83
2018-12-11T13:35:04.145Z,24.87
2018-12-11T13:37:34.987Z,30.87
2018-12-11T13:40:06.555Z,29.63
2018-12-11T13:42:37.253Z,21.77
2018-12-11T13:45:08.240Z,8.70
2018-12-11T13:47:38.943Z,10.40
2018-12-11T13:50:09.778Z,10.80
2018-12-11T13:52:40.475Z,8.83
2018-12-11T13:55:11.421Z,8.37
2018-12-11T13:57:42.693Z,7.70
2018-12-11T14:00:13.325Z,9.43
2018-12-11T14:02:44.053Z,9.10
2018-12-11T14:05:14.743Z,7.60
2018-12-11T14:07:45.597Z,9.60
2018-12-11T14:10:16.279Z,9.93
2018-12-11T14:12:46.934Z,9.90
2018-12-11T14:15:17.769Z,12.00
2018-12-11T14:17:48.591Z,11.40
2018-12-11T14:20:19.419Z,11.53
2018-12-11T14:22:50.139Z,13.13
2018-12-11T14:28:04.047Z,9.67
2018-12-11T14:30:34.878Z,13.90
2018-12-11T14:33:05.543Z,12.17
2018-12-11T14:35:36.852Z,14.87
2018-12-11T14:38:07.571Z,14.60
2018-12-11T14:40:38.161Z,11.33
2018-12-11T14:43:08.852Z,13.70
2018-12-11T14:45:39.740Z,9.53
2018-12-11T14:48:10.489Z,11.00
2018-12-11T14:50:41.244Z,14.33
2018-12-11T14:53:11.869Z,17.20
2018-12-11T14:55:42.513Z,14.17
2018-12-11T14:58:13.196Z,25.10
2018-12-11T15:00:43.982Z,21.63
2018-12-11T15:03:14.786Z,35.47
2018-12-11T15:05:46.073Z,53.87
2018-12-11T15:08:16.735Z,20.07
2018-12-11T15:10:47.912Z,30.50
2018-12-11T15:13:18.596Z,24.00
2018-12-11T15:15:49.363Z,19.73
2018-12-11T15:18:20.111Z,21.03
2018-12-11T15:20:50.716Z,16.63
2018-12-11T15:23:21.412Z,39.00
2018-12-11T15:25:52.180Z,27.90
2018-12-11T15:28:22.805Z,82.40
2018-12-11T15:31:13.456Z,80.60
2018-12-11T15:33:44.479Z,88.90
2018-12-11T15:36:15.112Z,105.93
2018-12-11T15:38:45.867Z,33.93
2018-12-11T15:41:16.518Z,44.43
2018-12-11T15:43:47.241Z,35.60
2018-12-11T15:46:18.093Z,41.00
2018-12-11T15:48:48.767Z,40.20
2018-12-11T15:51:19.396Z,37.73
2018-12-11T15:53:50.181Z,34.90
2018-12-11T15:56:20.963Z,34.30
2018-12-11T15:58:51.760Z,42.57
2018-12-11T16:01:22.521Z,52.50
2018-12-11T16:03:53.205Z,37.43
2018-12-11T16:06:24.050Z,41.30
2018-12-11T16:08:54.798Z,44.53
2018-12-11T16:11:25.772Z,51.07
2018-12-11T16:13:56.476Z,49.27
2018-12-11T16:16:27.912Z,40.43
2018-12-11T16:18:58.784Z,58.13
2018-12-11T16:21:29.566Z,70.80
2018-12-11T16:24:00.307Z,39.67
2018-12-11T16:26:31.292Z,45.63
2018-12-11T16:29:02.003Z,68.37
2018-12-11T16:31:32.724Z,187.43
2018-12-11T16:34:03.440Z,81.50
2018-12-11T16:36:34.092Z,69.20
2018-12-11T16:39:06.955Z,95.73
2018-12-11T16:41:37.576Z,84.50
2018-12-11T16:44:08.220Z,90.30
2018-12-11T16:46:39.166Z,73.17
2018-12-11T16:49:09.849Z,53.20
2018-12-11T16:51:40.525Z,71.67
2018-12-11T16:54:11.206Z,63.17
2018-12-11T16:56:42.021Z,62.93
2018-12-11T16:59:13.568Z,46.40
2018-12-11T17:01:44.271Z,55.20
2018-12-11T17:04:14.949Z,73.80
2018-12-11T17:06:45.875Z,60.60
2018-12-11T17:09:16.454Z,49.50
2018-12-11T17:11:47.230Z,42.27
2018-12-11T17:14:17.918Z,45.43
2018-12-11T17:16:48.598Z,35.00
2018-12-11T17:19:19.318Z,35.17
2018-12-11T17:21:50.167Z,39.90
2018-12-11T17:24:24.701Z,45.13
2018-12-11T17:26:58.479Z,42.50
2018-12-11T17:29:31.127Z,41.67
2018-12-11T17:32:09.727Z,56.17
2018-12-11T17:34:41.371Z,44.83
2018-12-11T17:37:12.049Z,37.53
2018-12-11T17:39:44.170Z,37.07
2018-12-11T17:42:16.491Z,112.17
2018-12-11T17:44:47.382Z,58.80
2018-12-11T17:47:18.224Z,73.20
2018-12-11T17:49:48.933Z,133.93
2018-12-11T17:52:22.596Z,113.23
2018-12-11T17:54:53.305Z,52.03
2018-12-11T17:57:24.079Z,46.00
2018-12-11T17:59:55.090Z,57.43
2018-12-11T18:02:30.835Z,68.87
2018-12-11T18:05:01.535Z,81.60
2018-12-11T18:07:32.264Z,87.40
2018-12-11T18:10:03.011Z,60.37
2018-12-11T18:12:34.948Z,63.87
2018-12-11T18:15:06.404Z,60.53
2018-12-11T18:17:37.029Z,51.53
2018-12-11T18:20:08.339Z,51.90
2018-12-11T18:22:38.985Z,31.60
2018-12-11T18:25:09.683Z,35.13
2018-12-11T18:27:40.554Z,29.83
2018-12-11T18:30:12.617Z,30.03
2018-12-11T18:32:43.282Z,26.33
2018-12-11T18:35:16.561Z,28.87
2018-12-11T18:37:47.339Z,28.77
2018-12-11T18:40:18.023Z,27.67
2018-12-11T18:42:48.691Z,36.53
2018-12-11T18:45:19.743Z,35.57
2018-12-11T18:47:50.668Z,44.80
2018-12-11T18:50:22.650Z,37.13
2018-12-11T18:52:53.535Z,34.87
2018-12-11T18:55:26.215Z,55.83
2018-12-11T18:57:56.920Z,48.77
2018-12-11T19:00:28.548Z,54.23
2018-12-11T19:02:59.262Z,46.20
2018-12-11T19:05:30.027Z,74.30
2018-12-11T19:08:00.978Z,48.27
2018-12-11T19:10:31.748Z,32.03
2018-12-11T19:13:02.463Z,38.37
2018-12-11T19:15:33.141Z,34.20
2018-12-11T19:18:04.951Z,114.50
2018-12-11T19:20:35.644Z,110.70
2018-12-11T19:23:15.304Z,84.00
2018-12-11T19:25:46.139Z,79.07
2018-12-11T19:28:17.091Z,32.30
2018-12-11T19:30:48.987Z,66.73
2018-12-11T19:33:19.620Z,44.47
2018-12-11T19:35:50.252Z,39.27
2018-12-11T19:38:23.046Z,35.57
2018-12-11T19:40:53.764Z,31.67
2018-12-11T19:43:24.463Z,29.57
2018-12-11T19:45:55.144Z,37.33
2018-12-11T19:48:26.021Z,35.80
2018-12-11T19:50:56.705Z,31.77
2018-12-11T19:53:27.618Z,36.37
2018-12-11T19:55:58.274Z,42.37
2018-12-11T19:58:28.978Z,37.60
2018-12-11T20:01:00.490Z,37.53
2018-12-11T20:03:31.018Z,30.17
2018-12-11T20:06:01.780Z,32.30
2018-12-11T20:08:33.837Z,33.47
2018-12-11T20:11:04.505Z,36.03
2018-12-11T20:13:35.146Z,32.73
2018-12-11T20:16:05.841Z,34.83
2018-12-11T20:18:37.360Z,33.17
2018-12-11T20:21:07.736Z,33.00
2018-12-11T20:23:38.367Z,34.67
2018-12-11T20:26:09.007Z,35.60
2018-12-11T20:28:39.939Z,31.70
2018-12-11T20:31:10.634Z,30.67
2018-12-11T20:33:41.336Z,32.83
2018-12-11T20:36:12.086Z,36.13
2018-12-11T20:38:42.799Z,35.23
2018-12-11T20:41:13.618Z,32.87
2018-12-11T20:43:44.283Z,39.33
2018-12-11T20:46:14.979Z,47.87
2018-12-11T20:48:46.586Z,38.77
2018-12-11T20:51:17.254Z,43.07
2018-12-11T20:53:47.855Z,43.53
2018-12-11T20:56:18.598Z,37.33
2018-12-11T20:58:49.338Z,35.47
2018-12-11T21:01:20.082Z,31.07
2018-12-11T21:03:50.772Z,29.63
2018-12-11T21:06:21.448Z,24.67
2018-12-11T21:08:52.388Z,24.17
2018-12-11T21:11:23.086Z,25.43
2018-12-11T21:13:53.702Z,25.47
2018-12-11T21:16:24.410Z,25.77
2018-12-11T21:18:55.406Z,25.40
2018-12-11T21:21:26.413Z,25.33
2018-12-11T21:23:57.297Z,20.60
2018-12-11T21:26:28.027Z,25.93
2018-12-11T21:28:58.764Z,26.30
2018-12-11T21:31:29.489Z,26.20
2018-12-11T21:34:01.615Z,25.53
2018-12-11T21:36:34.278Z,25.73
2018-12-11T21:39:09.736Z,26.07
2018-12-11T21:41:46.272Z,30.43
2018-12-11T21:44:19.883Z,27.47
2018-12-11T21:46:51.075Z,59.47
2018-12-11T21:49:22.075Z,32.97
2018-12-11T21:51:52.717Z,45.60
2018-12-11T21:54:23.544Z,44.73
2018-12-11T21:56:55.846Z,35.07
2018-12-11T21:59:26.691Z,51.67
2018-12-11T22:01:57.383Z,41.53
2018-12-11T22:04:28.041Z,42.33
2018-12-11T22:06:58.716Z,53.37
2018-12-11T22:09:29.628Z,45.03
2018-12-11T22:12:00.431Z,29.40
2018-12-11T22:14:31.024Z,28.53
2018-12-11T22:17:02.097Z,26.53
2018-12-11T22:19:32.794Z,26.87
2018-12-11T22:22:03.569Z,33.57
2018-12-11T22:24:35.157Z,30.10
2018-12-11T22:27:05.813Z,28.50
2018-12-11T22:29:36.489Z,30.97
2018-12-11T22:32:08.317Z,27.93
2018-12-11T22:34:39.076Z,30.33
2018-12-11T22:37:10.809Z,31.33
2018-12-11T22:39:41.558Z,32.77
2018-12-11T22:42:12.248Z,31.70
2018-12-11T22:44:42.932Z,30.70
2018-12-11T22:47:13.635Z,22.00
2018-12-11T22:49:45.505Z,22.03
2018-12-11T22:52:16.325Z,20.00
2018-12-11T22:54:47.009Z,21.07
2018-12-11T22:57:18.679Z,20.10
2018-12-11T22:59:49.419Z,23.40
2018-12-11T23:02:20.340Z,22.50
2018-12-11T23:04:51.036Z,20.30
2018-12-11T23:07:21.701Z,21.77
2018-12-11T23:09:52.671Z,24.47
2018-12-11T23:12:24.491Z,20.77
2018-12-11T23:14:55.292Z,20.73
2018-12-11T23:17:28.997Z,21.03
2018-12-11T23:19:59.697Z,18.97
2018-12-11T23:22:30.323Z,22.30
2018-12-11T23:25:01.293Z,21.63
2018-12-11T23:27:31.961Z,19.87
2018-12-11T23:30:02.789Z,20.90
2018-12-11T23:32:34.563Z,22.63
2018-12-11T23:35:06.313Z,23.93
2018-12-11T23:37:39.870Z,22.73
2018-12-11T23:40:10.529Z,21.07
2018-12-11T23:42:45.259Z,24.77
2018-12-11T23:45:19.852Z,25.63
2018-12-11T23:47:50.532Z,22.57
2018-12-11T23:50:21.440Z,22.93
2018-12-11T23:52:52.027Z,24.63
2018-12-11T23:55:22.937Z,29.80
2018-12-11T23:57:53.592Z,28.00
